INFORMACIÓN METAR y TAF
METAR FOR YBNA
ADDS - METARS form results

(0146 UTC 22 February 2019)
Data provider http://aviationweather.gov/metar/data/
 
METAR text: YBNA 220100Z AUTO 17022G34KT 9999 // BKN030 BKN046 OVC056 26/23 Q1011
Conditions at: YBNA (BALLINA BYRON G., AU) observed 0100 UTC 22 February 2019
Temperature: 26.0°C (79°F)
Dewpoint: 23.0°C (73°F) [RH = 84%]
Pressure (altimeter): 29.85 inches Hg (1011.0 mb)
Winds: from the S (170 degrees) at 25 MPH (22 knots; 11.3 m/s)
gusting to 39 MPH (34 knots; 17.5 m/s)
Visibility: 6 or more miles (10+ km)
Ceiling: 3000 feet AGL
Clouds: broken clouds at 3000 feet AGL
broken clouds at 4600 feet AGL
overcast cloud deck at 5600 feet AGL
Weather: no significant weather observed at this time

 MAPA DE AEROPUERTO

 INFORMACIÓN DE PISTA
Pista 06 Longitud 6234 ft Ancho 98 ft
Elevación 7 ft Umbral desplazado 0 ft Rumbo de pista 74
Pista 24 Longitud 6234 ft Ancho 98 ft
Elevación 7 ft Umbral desplazado 0 ft Rumbo de pista 254

 FRECUANCIAS DEL AEROPUERTO
Tipo CTAF Nombre CTAF Frecuencia 124.2 MHZ
Tipo FSS Nombre BRISBANE C Frecuencia 120.3 MHZ

 RADIO AYUDAS DEL AEROPUERTO
Tipo NDB Nombre Ballina Frecuencia 206 KHZ



Powered by Virtual Airlines Manager [v2.6.2]